createdAt,value
2022-10-03T00:00:03.255Z,12.53
2022-10-03T00:01:03.247Z,12.55
2022-10-03T00:02:03.277Z,12.55
2022-10-03T00:03:03.324Z,12.55
2022-10-03T00:04:03.235Z,12.55
2022-10-03T00:05:03.236Z,12.54
2022-10-03T00:06:03.235Z,12.57
2022-10-03T00:07:03.222Z,12.60
2022-10-03T00:08:03.218Z,12.57
2022-10-03T00:09:03.220Z,12.60
2022-10-03T00:10:03.220Z,12.57
2022-10-03T00:11:03.212Z,12.58
2022-10-03T00:12:03.211Z,12.58
2022-10-03T00:13:03.205Z,12.60
2022-10-03T00:14:03.214Z,12.54
2022-10-03T00:15:03.201Z,12.61
2022-10-03T00:16:03.242Z,12.57
2022-10-03T00:17:06.176Z,12.60
2022-10-03T00:18:03.198Z,12.62
2022-10-03T00:19:03.193Z,12.58
2022-10-03T00:20:03.173Z,12.64
2022-10-03T00:21:03.206Z,12.58
2022-10-03T00:22:03.181Z,12.58
2022-10-03T00:23:03.189Z,12.55
2022-10-03T00:24:03.165Z,12.54
2022-10-03T00:25:03.161Z,12.54
2022-10-03T00:26:03.154Z,12.57
2022-10-03T00:27:03.158Z,12.54
2022-10-03T00:28:03.192Z,12.62
2022-10-03T00:29:03.145Z,12.53
2022-10-03T00:30:09.684Z,12.58
2022-10-03T00:31:03.310Z,12.55
2022-10-03T00:32:04.114Z,12.57
2022-10-03T00:33:03.152Z,12.53
2022-10-03T00:34:03.128Z,12.55
2022-10-03T00:35:03.134Z,12.55
2022-10-03T00:36:03.123Z,12.55
2022-10-03T00:37:03.118Z,12.67
2022-10-03T00:38:03.120Z,12.58
2022-10-03T00:39:09.685Z,12.53
2022-10-03T00:40:03.111Z,12.55
2022-10-03T00:41:03.107Z,12.53
2022-10-03T00:42:03.100Z,12.54
2022-10-03T00:43:03.101Z,12.55
2022-10-03T00:44:03.098Z,12.54
2022-10-03T00:45:03.092Z,12.53
2022-10-03T00:46:03.159Z,12.54
2022-10-03T00:47:03.082Z,12.53
2022-10-03T00:48:03.080Z,12.55
2022-10-03T00:49:03.091Z,12.57
2022-10-03T00:50:03.079Z,12.55
2022-10-03T00:51:03.091Z,12.58
2022-10-03T00:52:03.068Z,12.57
2022-10-03T00:53:03.199Z,12.53
2022-10-03T00:54:03.058Z,12.53
2022-10-03T00:55:03.058Z,12.53
2022-10-03T00:56:03.051Z,12.53
2022-10-03T00:57:03.059Z,12.49
2022-10-03T00:58:03.045Z,12.53
2022-10-03T00:59:03.039Z,12.50
2022-10-03T01:00:03.042Z,12.55
2022-10-03T01:01:03.077Z,12.57
2022-10-03T01:02:03.070Z,12.49
2022-10-03T01:03:03.032Z,12.53
2022-10-03T01:04:03.031Z,12.47
2022-10-03T01:05:03.020Z,12.49
2022-10-03T01:06:03.022Z,12.55
2022-10-03T01:07:03.010Z,12.58
2022-10-03T01:08:03.007Z,12.55
2022-10-03T01:09:05.690Z,12.55
2022-10-03T01:10:03.003Z,12.55
2022-10-03T01:11:05.628Z,12.55
2022-10-03T01:12:02.991Z,12.54
2022-10-03T01:13:02.983Z,12.50
2022-10-03T01:14:02.992Z,12.57
2022-10-03T01:15:02.984Z,12.55
2022-10-03T01:16:04.218Z,12.54
2022-10-03T01:17:02.975Z,12.55
2022-10-03T01:18:02.985Z,12.55
2022-10-03T01:19:03.038Z,12.55
2022-10-03T01:20:02.977Z,12.61
2022-10-03T01:21:02.961Z,12.53
2022-10-03T01:22:02.960Z,12.54
2022-10-03T01:23:02.956Z,12.55
2022-10-03T01:24:02.967Z,12.55
2022-10-03T01:25:02.947Z,12.54
2022-10-03T01:26:02.944Z,12.53
2022-10-03T01:27:05.131Z,12.55
2022-10-03T01:28:02.976Z,12.53
2022-10-03T01:29:02.928Z,12.49
2022-10-03T01:30:02.931Z,12.50
2022-10-03T01:31:03.015Z,12.46
2022-10-03T01:32:02.922Z,12.47
2022-10-03T01:33:02.935Z,12.58
2022-10-03T01:34:03.632Z,12.54
2022-10-03T01:35:02.914Z,12.53
2022-10-03T01:36:02.904Z,12.50
2022-10-03T01:37:02.908Z,12.50
2022-10-03T01:38:02.905Z,12.54
2022-10-03T01:39:02.899Z,12.49
2022-10-03T01:40:02.896Z,12.50
2022-10-03T01:41:02.889Z,12.55
2022-10-03T01:42:02.884Z,12.46
2022-10-03T01:43:02.912Z,12.49
2022-10-03T01:44:03.011Z,12.47
2022-10-03T01:45:02.877Z,12.50
2022-10-03T01:46:02.876Z,12.42
2022-10-03T01:47:02.865Z,12.49
2022-10-03T01:48:02.863Z,12.46
2022-10-03T01:49:02.856Z,12.47
2022-10-03T01:50:02.857Z,12.47
2022-10-03T01:51:02.853Z,12.50
2022-10-03T01:52:03.637Z,12.47
2022-10-03T01:53:02.844Z,12.50
2022-10-03T01:54:02.845Z,12.49
2022-10-03T01:55:02.840Z,12.45
2022-10-03T01:56:02.836Z,12.45
2022-10-03T01:57:02.825Z,12.46
2022-10-03T01:58:02.824Z,12.46
2022-10-03T01:59:02.821Z,12.46
2022-10-03T02:00:02.820Z,12.43
2022-10-03T02:01:02.879Z,12.45
2022-10-03T02:02:02.828Z,12.49
2022-10-03T02:03:02.817Z,12.45
2022-10-03T02:04:02.805Z,12.43
2022-10-03T02:05:02.811Z,12.49
2022-10-03T02:06:04.140Z,12.46
2022-10-03T02:07:02.792Z,12.35
2022-10-03T02:08:02.887Z,12.43
2022-10-03T02:09:02.788Z,12.47
2022-10-03T02:10:04.150Z,12.42
2022-10-03T02:11:03.684Z,12.43
2022-10-03T02:12:02.773Z,12.42
2022-10-03T02:13:02.770Z,12.39
2022-10-03T02:14:02.769Z,12.45
2022-10-03T02:15:02.766Z,12.45
2022-10-03T02:16:03.685Z,12.46
2022-10-03T02:17:02.752Z,12.49
2022-10-03T02:18:02.754Z,12.45
2022-10-03T02:19:02.756Z,12.47
2022-10-03T02:20:02.754Z,12.54
2022-10-03T02:21:02.748Z,12.42
2022-10-03T02:22:02.732Z,12.50
2022-10-03T02:23:02.736Z,12.42
2022-10-03T02:24:02.746Z,12.49
2022-10-03T02:25:02.765Z,12.46
2022-10-03T02:26:02.729Z,12.50
2022-10-03T02:27:02.720Z,12.45
2022-10-03T02:28:04.195Z,12.53
2022-10-03T02:29:02.721Z,12.49
2022-10-03T02:30:03.647Z,12.43
2022-10-03T02:31:02.758Z,12.45
2022-10-03T02:32:02.777Z,12.45
2022-10-03T02:33:02.704Z,12.43
2022-10-03T02:34:02.699Z,12.45
2022-10-03T02:35:02.694Z,12.50
2022-10-03T02:36:02.696Z,12.49
2022-10-03T02:37:02.690Z,12.54
2022-10-03T02:38:02.677Z,12.45
2022-10-03T02:39:04.147Z,12.46
2022-10-03T02:40:02.681Z,12.47
2022-10-03T02:41:02.661Z,12.53
2022-10-03T02:42:23.670Z,12.50
2022-10-03T02:43:02.658Z,12.47
2022-10-03T02:44:02.653Z,12.49
2022-10-03T02:45:02.649Z,12.53
2022-10-03T02:46:02.683Z,12.49
2022-10-03T02:47:02.645Z,12.54
2022-10-03T02:48:27.000Z,12.49
2022-10-03T02:49:02.855Z,12.49
2022-10-03T02:50:02.636Z,12.55
2022-10-03T02:51:02.635Z,12.58
2022-10-03T02:52:09.873Z,12.57
2022-10-03T02:53:02.632Z,12.55
2022-10-03T02:54:02.620Z,12.55
2022-10-03T02:55:05.243Z,12.53
2022-10-03T02:56:03.108Z,12.47
2022-10-03T02:57:02.618Z,12.46
2022-10-03T02:58:02.611Z,12.46
2022-10-03T02:59:02.601Z,12.47
2022-10-03T03:00:02.595Z,12.47
2022-10-03T03:01:02.671Z,12.45
2022-10-03T03:02:02.644Z,12.46
2022-10-03T03:03:02.589Z,12.50
2022-10-03T03:04:02.583Z,12.46
2022-10-03T03:05:02.582Z,12.54
2022-10-03T03:06:02.578Z,12.49
2022-10-03T03:07:02.781Z,12.55
2022-10-03T03:08:02.586Z,12.49
2022-10-03T03:09:02.563Z,12.50
2022-10-03T03:10:02.559Z,12.57
2022-10-03T03:11:02.558Z,12.53
2022-10-03T03:12:02.551Z,12.47
2022-10-03T03:13:02.553Z,12.54
2022-10-03T03:14:03.157Z,12.57
2022-10-03T03:15:02.546Z,12.49
2022-10-03T03:16:02.559Z,12.49
2022-10-03T03:17:02.534Z,12.46
2022-10-03T03:18:02.542Z,12.50
2022-10-03T03:19:02.531Z,12.47
2022-10-03T03:20:02.533Z,12.47
2022-10-03T03:21:02.520Z,12.50
2022-10-03T03:22:02.526Z,12.50
2022-10-03T03:23:02.515Z,12.49
2022-10-03T03:24:02.639Z,12.43
2022-10-03T03:25:02.513Z,12.50
2022-10-03T03:26:26.250Z,12.50
2022-10-03T03:27:02.499Z,12.50
2022-10-03T03:28:02.567Z,12.46
2022-10-03T03:29:02.496Z,12.49
2022-10-03T03:30:02.646Z,12.47
2022-10-03T03:31:02.494Z,12.55
2022-10-03T03:32:02.515Z,12.47
2022-10-03T03:33:02.481Z,12.49
2022-10-03T03:34:02.473Z,12.46
2022-10-03T03:35:02.477Z,12.50
2022-10-03T03:36:02.466Z,12.47
2022-10-03T03:37:02.460Z,12.37
2022-10-03T03:38:05.158Z,12.47
2022-10-03T03:39:02.455Z,12.43
2022-10-03T03:40:02.464Z,12.40
2022-10-03T03:41:02.448Z,12.42
2022-10-03T03:42:02.444Z,12.40
2022-10-03T03:43:02.448Z,12.46
2022-10-03T03:44:02.443Z,12.43
2022-10-03T03:45:02.443Z,12.43
2022-10-03T03:46:02.552Z,12.47
2022-10-03T03:47:02.461Z,12.49
2022-10-03T03:48:02.477Z,12.47
2022-10-03T03:49:02.428Z,12.50
2022-10-03T03:50:02.414Z,12.49
2022-10-03T03:51:02.418Z,12.53
2022-10-03T03:52:02.404Z,12.49
2022-10-03T03:53:02.406Z,12.55
2022-10-03T03:54:02.399Z,12.49
2022-10-03T03:55:02.398Z,12.47
2022-10-03T03:56:02.398Z,12.47
2022-10-03T03:57:02.387Z,12.50
2022-10-03T03:58:02.391Z,12.45
2022-10-03T03:59:02.384Z,12.49
2022-10-03T04:00:02.383Z,12.46
2022-10-03T04:01:09.286Z,12.43
2022-10-03T04:02:03.208Z,12.43
2022-10-03T04:03:02.375Z,12.42
2022-10-03T04:04:02.369Z,12.45
2022-10-03T04:05:02.358Z,12.42
2022-10-03T04:06:02.363Z,12.47
2022-10-03T04:07:02.354Z,12.45
2022-10-03T04:08:02.350Z,12.46
2022-10-03T04:09:02.383Z,12.40
2022-10-03T04:10:02.532Z,12.45
2022-10-03T04:11:02.336Z,12.47
2022-10-03T04:12:02.345Z,12.50
2022-10-03T04:13:02.329Z,12.47
2022-10-03T04:14:02.330Z,12.49
2022-10-03T04:15:02.333Z,12.42
2022-10-03T04:16:02.315Z,12.45
2022-10-03T04:17:02.320Z,12.43
2022-10-03T04:18:02.323Z,12.47
2022-10-03T04:19:02.309Z,12.42
2022-10-03T04:20:02.322Z,12.46
2022-10-03T04:21:02.302Z,12.46
2022-10-03T04:22:02.298Z,12.43
2022-10-03T04:23:02.298Z,12.39
2022-10-03T04:24:02.286Z,12.45
2022-10-03T04:25:10.671Z,12.40
2022-10-03T04:26:02.277Z,12.37
2022-10-03T04:27:02.775Z,12.39
2022-10-03T04:28:02.349Z,12.42
2022-10-03T04:29:04.176Z,12.42
2022-10-03T04:30:02.414Z,12.42
2022-10-03T04:31:02.264Z,12.42
2022-10-03T04:32:03.261Z,12.37
2022-10-03T04:33:02.263Z,12.42
2022-10-03T04:34:02.258Z,12.43
2022-10-03T04:35:02.270Z,12.39
2022-10-03T04:36:02.244Z,12.43
2022-10-03T04:37:02.246Z,12.39
2022-10-03T04:38:02.239Z,12.45
2022-10-03T04:39:23.342Z,12.47
2022-10-03T04:40:02.232Z,12.39
2022-10-03T04:41:02.230Z,12.37
2022-10-03T04:42:02.222Z,12.42
2022-10-03T04:43:02.219Z,12.42
2022-10-03T04:44:23.225Z,12.46
2022-10-03T04:45:04.926Z,12.43
2022-10-03T04:46:02.323Z,12.42
2022-10-03T04:47:02.316Z,12.43
2022-10-03T04:48:02.207Z,12.42
2022-10-03T04:49:09.232Z,12.42
2022-10-03T04:50:02.203Z,12.43
2022-10-03T04:51:02.187Z,12.37
2022-10-03T04:52:02.188Z,12.42
2022-10-03T04:53:02.187Z,12.42
2022-10-03T04:54:02.180Z,12.47
2022-10-03T04:55:02.172Z,12.39
2022-10-03T04:56:03.683Z,12.40
2022-10-03T04:57:02.674Z,12.43
2022-10-03T04:58:05.163Z,12.35
2022-10-03T04:59:02.158Z,12.35
2022-10-03T05:00:03.173Z,12.36
2022-10-03T05:01:02.224Z,12.35
2022-10-03T05:02:02.216Z,12.40
2022-10-03T05:03:02.151Z,12.42
2022-10-03T05:04:04.173Z,12.39
2022-10-03T05:05:02.142Z,12.37
2022-10-03T05:06:02.160Z,12.40
2022-10-03T05:07:02.150Z,12.40
2022-10-03T05:08:02.125Z,12.37
2022-10-03T05:09:08.743Z,12.35
2022-10-03T05:10:05.991Z,12.40
2022-10-03T05:11:04.742Z,12.36
2022-10-03T05:12:02.110Z,12.42
2022-10-03T05:13:02.110Z,12.37
2022-10-03T05:14:02.111Z,12.45
2022-10-03T05:15:02.104Z,12.39
2022-10-03T05:16:03.270Z,12.46
2022-10-03T05:18:13.760Z,12.43
2022-10-03T05:19:13.733Z,12.37
2022-10-03T05:21:17.821Z,12.37
2022-10-03T05:22:17.698Z,12.32
2022-10-03T05:24:10.628Z,12.35
2022-10-03T05:25:10.614Z,12.40
2022-10-03T05:27:14.796Z,12.37
2022-10-03T05:28:14.672Z,12.40
2022-10-03T05:30:18.610Z,12.53
2022-10-03T05:31:18.674Z,12.40
2022-10-03T05:33:22.584Z,12.42
2022-10-03T05:34:22.575Z,12.42
2022-10-03T05:36:26.622Z,12.50
2022-10-03T05:37:26.611Z,12.40
2022-10-03T05:39:30.707Z,12.49
2022-10-03T05:40:31.994Z,12.49
2022-10-03T05:42:34.656Z,12.43
2022-10-03T05:43:34.651Z,12.35
2022-10-03T05:45:38.718Z,12.42
2022-10-03T05:46:38.630Z,12.36
2022-10-03T05:48:42.717Z,12.32
2022-10-03T05:49:42.719Z,12.31
2022-10-03T05:51:46.719Z,12.28
2022-10-03T05:52:46.694Z,12.39
2022-10-03T05:54:50.685Z,12.40
2022-10-03T05:55:50.685Z,12.32
2022-10-03T05:57:54.706Z,12.39
2022-10-03T05:58:54.692Z,12.37
2022-10-03T06:00:58.659Z,12.49
2022-10-03T06:01:58.676Z,12.46
2022-10-03T06:03:51.575Z,12.43
2022-10-03T06:04:51.554Z,12.39
2022-10-03T06:06:56.008Z,12.45
2022-10-03T06:07:55.533Z,12.40
2022-10-03T06:09:59.536Z,12.42
2022-10-03T06:11:00.910Z,12.37
2022-10-03T06:13:03.545Z,12.36
2022-10-03T06:14:03.473Z,12.46
2022-10-03T06:16:07.530Z,12.39
2022-10-03T06:17:07.449Z,12.45
2022-10-03T06:19:11.465Z,12.53
2022-10-03T06:20:12.330Z,12.49
2022-10-03T06:22:15.503Z,12.54
2022-10-03T06:23:15.419Z,12.55
2022-10-03T06:25:19.493Z,12.55
2022-10-03T06:26:19.494Z,12.55
2022-10-03T06:28:24.422Z,12.58
2022-10-03T06:29:24.366Z,12.55
2022-10-03T06:31:31.913Z,12.58
2022-10-03T06:32:27.455Z,12.58
2022-10-03T06:34:31.470Z,12.50
2022-10-03T06:35:31.478Z,12.53
2022-10-03T06:37:35.413Z,12.64
2022-10-03T06:38:35.408Z,12.57
2022-10-03T06:40:40.791Z,12.57
2022-10-03T06:41:39.682Z,12.55
2022-10-03T06:43:32.298Z,12.53
2022-10-03T06:44:32.301Z,12.55
2022-10-03T06:46:36.756Z,12.60
2022-10-03T06:47:36.269Z,12.55
2022-10-03T06:49:40.243Z,12.58
2022-10-03T06:50:40.240Z,12.62
2022-10-03T06:52:44.423Z,12.61
2022-10-03T06:53:44.222Z,12.61
2022-10-03T06:55:48.207Z,12.64
2022-10-03T06:56:50.057Z,12.68
2022-10-03T06:58:52.228Z,12.57
2022-10-03T06:59:52.156Z,12.57
2022-10-03T07:02:00.235Z,12.75
2022-10-03T07:04:25.020Z,12.65
2022-10-03T07:05:24.618Z,12.72
2022-10-03T07:07:30.139Z,12.76
2022-10-03T07:08:28.579Z,12.73
2022-10-03T07:10:33.049Z,12.79
2022-10-03T07:11:34.993Z,12.80
2022-10-03T07:13:24.985Z,12.85
2022-10-03T07:14:24.991Z,12.91
2022-10-03T07:16:29.065Z,12.90
2022-10-03T07:17:28.961Z,12.95
2022-10-03T07:19:32.957Z,12.97
2022-10-03T07:20:33.848Z,12.98
2022-10-03T07:22:36.982Z,12.94
2022-10-03T07:23:36.952Z,12.93
2022-10-03T07:25:41.824Z,12.95
2022-10-03T07:26:40.918Z,13.03
2022-10-03T07:28:44.909Z,13.03
2022-10-03T07:29:46.796Z,12.98
2022-10-03T07:31:48.903Z,13.03
2022-10-03T07:32:48.888Z,12.87
2022-10-03T07:34:52.891Z,12.90
2022-10-03T07:35:52.865Z,12.93
2022-10-03T07:37:56.992Z,12.93
2022-10-03T07:38:56.878Z,12.98
2022-10-03T07:41:00.907Z,13.33
2022-10-03T07:42:01.752Z,13.44
2022-10-03T07:43:54.008Z,13.44
2022-10-03T07:44:55.271Z,13.49
2022-10-03T07:46:57.795Z,13.71
2022-10-03T07:47:57.810Z,13.83
2022-10-03T07:50:01.822Z,13.81
2022-10-03T07:51:01.799Z,13.78
2022-10-03T07:53:05.810Z,13.75
2022-10-03T07:54:05.791Z,13.70
2022-10-03T07:56:09.981Z,13.56
2022-10-03T07:57:09.828Z,13.59
2022-10-03T07:59:13.802Z,13.53
2022-10-03T08:00:13.785Z,13.44
2022-10-03T08:02:17.829Z,13.39
2022-10-03T08:03:17.829Z,13.39
2022-10-03T08:05:21.805Z,13.42
2022-10-03T08:06:21.820Z,13.35
2022-10-03T08:08:25.825Z,13.38
2022-10-03T08:09:25.767Z,13.38
2022-10-03T08:11:29.782Z,13.38
2022-10-03T08:12:29.808Z,13.33
2022-10-03T08:14:33.774Z,13.37
2022-10-03T08:15:33.846Z,13.42
2022-10-03T08:17:37.739Z,13.39
2022-10-03T08:18:37.727Z,13.39
2022-10-03T08:20:41.745Z,13.35
2022-10-03T08:21:42.114Z,13.44
2022-10-03T08:23:34.649Z,13.37
2022-10-03T08:24:34.802Z,13.41
2022-10-03T08:26:38.623Z,13.38
2022-10-03T08:27:38.598Z,13.44
2022-10-03T08:29:42.596Z,13.47
2022-10-03T08:30:42.659Z,13.49
2022-10-03T08:31:43.219Z,13.53
2022-10-03T08:32:47.813Z,13.56
2022-10-03T08:33:42.564Z,13.57
2022-10-03T08:34:42.573Z,13.57
2022-10-03T08:35:42.558Z,13.54
2022-10-03T08:36:42.571Z,13.56
2022-10-03T08:37:42.561Z,13.59
2022-10-03T08:38:42.559Z,13.53
2022-10-03T08:39:42.542Z,13.54
2022-10-03T08:40:42.552Z,13.52
2022-10-03T08:41:42.874Z,13.47
2022-10-03T08:42:42.547Z,13.47
2022-10-03T08:43:42.548Z,13.53
2022-10-03T08:44:42.534Z,13.46
2022-10-03T08:45:42.596Z,13.57
2022-10-03T08:46:42.712Z,13.57
2022-10-03T08:47:42.545Z,13.65
2022-10-03T08:48:42.540Z,13.79
2022-10-03T08:49:42.526Z,13.85
2022-10-03T08:50:42.526Z,13.92
2022-10-03T08:51:42.740Z,13.92
2022-10-03T08:52:42.528Z,13.90
2022-10-03T08:53:42.523Z,13.95
2022-10-03T08:54:42.516Z,13.95
2022-10-03T08:55:42.535Z,13.90
2022-10-03T08:56:42.508Z,13.92
2022-10-03T08:57:42.505Z,13.90
2022-10-03T08:58:42.499Z,14.04
2022-10-03T08:59:42.500Z,14.07
2022-10-03T09:00:42.496Z,14.12
2022-10-03T09:01:43.378Z,14.11
2022-10-03T09:02:42.516Z,14.25
2022-10-03T09:03:43.483Z,14.35
2022-10-03T09:04:42.495Z,14.17
2022-10-03T09:05:42.493Z,14.40
2022-10-03T09:07:05.185Z,14.32
2022-10-03T09:07:42.489Z,14.29
2022-10-03T09:08:42.502Z,14.23
2022-10-03T09:09:42.493Z,14.22
2022-10-03T09:10:42.517Z,14.18
2022-10-03T09:11:42.481Z,14.14
2022-10-03T09:12:42.478Z,14.23
2022-10-03T09:13:42.524Z,14.11
2022-10-03T09:14:42.471Z,14.11
2022-10-03T09:15:42.504Z,14.08
2022-10-03T09:16:43.060Z,14.03
2022-10-03T09:17:42.480Z,13.99
2022-10-03T09:18:42.489Z,14.05
2022-10-03T09:19:42.455Z,13.96
2022-10-03T09:20:42.468Z,14.04
2022-10-03T09:21:42.459Z,13.99
2022-10-03T09:22:42.472Z,14.07
2022-10-03T09:23:42.463Z,14.03
2022-10-03T09:24:42.558Z,14.07
2022-10-03T09:25:42.447Z,14.03
2022-10-03T09:26:42.759Z,14.05
2022-10-03T09:27:42.446Z,14.08
2022-10-03T09:28:42.502Z,14.11
2022-10-03T09:29:42.439Z,14.11
2022-10-03T09:30:42.451Z,14.12
2022-10-03T09:31:43.017Z,14.12
2022-10-03T09:32:42.441Z,14.17
2022-10-03T09:33:42.430Z,14.28
2022-10-03T09:34:42.432Z,14.30
2022-10-03T09:35:42.430Z,14.37
2022-10-03T09:36:42.436Z,14.41
2022-10-03T09:37:42.422Z,14.41
2022-10-03T09:38:42.428Z,14.35
2022-10-03T09:39:42.425Z,14.40
2022-10-03T09:40:42.419Z,14.44
2022-10-03T09:41:42.810Z,14.45
2022-10-03T09:42:42.421Z,14.48
2022-10-03T09:43:42.437Z,14.47
2022-10-03T09:44:42.441Z,14.40
2022-10-03T09:45:42.411Z,14.35
2022-10-03T09:46:46.280Z,14.33
2022-10-03T09:47:42.409Z,14.48
2022-10-03T09:48:42.397Z,14.33
2022-10-03T09:49:42.407Z,14.37
2022-10-03T09:50:42.407Z,14.32
2022-10-03T09:51:42.851Z,14.40
2022-10-03T09:52:42.408Z,14.35
2022-10-03T09:53:42.408Z,14.43
2022-10-03T09:54:42.386Z,14.35
2022-10-03T09:55:42.401Z,14.47
2022-10-03T09:56:42.737Z,14.47
2022-10-03T09:57:42.386Z,14.50
2022-10-03T09:58:42.386Z,14.55
2022-10-03T09:59:42.385Z,14.60
2022-10-03T10:00:42.422Z,14.65
2022-10-03T10:01:42.379Z,14.60
2022-10-03T10:02:42.397Z,14.58
2022-10-03T10:03:42.414Z,14.72
2022-10-03T10:04:56.412Z,14.77
2022-10-03T10:05:42.404Z,14.70
2022-10-03T10:06:42.678Z,14.65
2022-10-03T10:07:42.369Z,14.65
2022-10-03T10:08:42.364Z,14.66
2022-10-03T10:09:42.365Z,14.59
2022-10-03T10:10:42.360Z,14.58
2022-10-03T10:11:42.356Z,14.59
2022-10-03T10:12:42.379Z,14.60
2022-10-03T10:14:06.194Z,14.50
2022-10-03T10:14:42.354Z,14.48
2022-10-03T10:15:42.374Z,14.47
2022-10-03T10:16:45.862Z,14.53
2022-10-03T10:17:42.377Z,14.45
2022-10-03T10:18:42.368Z,14.48
2022-10-03T10:19:42.354Z,14.50
2022-10-03T10:20:42.403Z,14.55
2022-10-03T10:21:42.394Z,14.48
2022-10-03T10:22:45.115Z,14.45
2022-10-03T10:23:42.327Z,14.62
2022-10-03T10:24:42.354Z,14.50
2022-10-03T10:25:42.334Z,14.53
2022-10-03T10:26:42.688Z,14.54
2022-10-03T10:27:42.344Z,14.53
2022-10-03T10:28:42.332Z,14.59
2022-10-03T10:29:42.347Z,14.59
2022-10-03T10:30:42.339Z,14.65
2022-10-03T10:31:42.451Z,14.68
2022-10-03T10:32:42.317Z,14.65
2022-10-03T10:33:42.333Z,14.70
2022-10-03T10:34:42.329Z,14.69
2022-10-03T10:35:42.317Z,14.66
2022-10-03T10:36:42.670Z,14.79
2022-10-03T10:37:46.148Z,14.70
2022-10-03T10:38:42.309Z,14.77
2022-10-03T10:39:42.300Z,14.85
2022-10-03T10:40:42.318Z,14.78
2022-10-03T10:41:42.572Z,14.81
2022-10-03T10:42:42.314Z,14.86
2022-10-03T10:43:42.288Z,14.91
2022-10-03T10:44:42.801Z,14.96
2022-10-03T10:45:42.315Z,14.99
2022-10-03T10:46:42.629Z,15.03
2022-10-03T10:47:42.363Z,14.99
2022-10-03T10:48:46.521Z,15.02
2022-10-03T10:49:42.296Z,14.94
2022-10-03T10:50:42.296Z,15.00
2022-10-03T10:51:42.286Z,14.97
2022-10-03T10:52:42.301Z,15.00
2022-10-03T10:53:42.277Z,15.00
2022-10-03T10:54:42.278Z,15.15
2022-10-03T10:55:46.085Z,15.10
2022-10-03T10:56:42.751Z,15.09
2022-10-03T10:57:42.300Z,15.14
2022-10-03T10:58:42.274Z,15.14
2022-10-03T10:59:42.266Z,15.10
2022-10-03T11:00:42.345Z,15.06
2022-10-03T11:01:45.809Z,15.11
2022-10-03T11:02:42.283Z,15.09
2022-10-03T11:03:42.330Z,15.11
2022-10-03T11:04:42.289Z,15.11
2022-10-03T11:05:42.259Z,15.15
2022-10-03T11:06:42.645Z,15.11
2022-10-03T11:07:42.253Z,15.18
2022-10-03T11:08:42.248Z,15.19
2022-10-03T11:09:42.256Z,15.18
2022-10-03T11:10:42.259Z,15.28
2022-10-03T11:11:42.258Z,15.28
2022-10-03T11:12:42.268Z,15.22
2022-10-03T11:13:42.259Z,15.27
2022-10-03T11:14:42.296Z,15.15
2022-10-03T11:15:42.250Z,15.15
2022-10-03T11:16:42.814Z,15.17
2022-10-03T11:17:42.261Z,15.18
2022-10-03T11:18:42.238Z,15.24
2022-10-03T11:19:42.591Z,15.17
2022-10-03T11:20:42.236Z,15.18
2022-10-03T11:21:42.235Z,15.18
2022-10-03T11:22:42.326Z,15.24
2022-10-03T11:23:42.232Z,15.27
2022-10-03T11:24:42.231Z,15.25
2022-10-03T11:25:42.232Z,15.15
2022-10-03T11:26:42.698Z,15.18
2022-10-03T11:27:42.225Z,15.24
2022-10-03T11:28:42.309Z,15.28
2022-10-03T11:29:42.231Z,15.21
2022-10-03T11:30:42.211Z,15.28
2022-10-03T11:31:42.247Z,15.27
2022-10-03T11:32:42.271Z,15.14
2022-10-03T11:33:42.218Z,15.27
2022-10-03T11:34:42.210Z,15.24
2022-10-03T11:35:43.210Z,15.21
2022-10-03T11:36:42.635Z,15.24
2022-10-03T11:37:42.223Z,15.22
2022-10-03T11:38:42.230Z,15.25
2022-10-03T11:39:42.200Z,15.22
2022-10-03T11:40:42.202Z,15.22
2022-10-03T11:41:42.205Z,15.21
2022-10-03T11:42:42.203Z,15.27
2022-10-03T11:43:42.197Z,15.28
2022-10-03T11:44:42.219Z,15.18
2022-10-03T11:45:42.216Z,15.18
2022-10-03T11:46:42.515Z,15.10
2022-10-03T11:47:42.211Z,15.10
2022-10-03T11:48:42.199Z,15.07
2022-10-03T11:49:42.198Z,15.15
2022-10-03T11:50:42.195Z,15.09
2022-10-03T11:51:42.188Z,15.11
2022-10-03T11:52:42.251Z,15.11
2022-10-03T11:53:42.189Z,15.14
2022-10-03T11:54:42.186Z,15.11
2022-10-03T11:55:42.174Z,15.10
2022-10-03T11:56:42.597Z,15.04
2022-10-03T11:57:42.179Z,15.06
2022-10-03T11:58:42.166Z,14.99
2022-10-03T11:59:42.173Z,14.97
2022-10-03T12:00:42.187Z,15.02
2022-10-03T12:01:42.575Z,14.94
2022-10-03T12:02:42.276Z,15.00
2022-10-03T12:03:42.238Z,14.99
2022-10-03T12:04:42.165Z,14.96
2022-10-03T12:05:42.163Z,15.03
2022-10-03T12:06:42.166Z,14.97
2022-10-03T12:07:42.170Z,15.06
2022-10-03T12:08:42.150Z,14.92
2022-10-03T12:09:42.160Z,14.94
2022-10-03T12:10:42.158Z,15.02
2022-10-03T12:11:42.533Z,15.00
2022-10-03T12:12:42.168Z,14.99
2022-10-03T12:13:43.045Z,14.94
2022-10-03T12:14:44.554Z,14.94
2022-10-03T12:15:43.055Z,15.00
2022-10-03T12:16:42.172Z,14.91
2022-10-03T12:17:42.143Z,14.94
2022-10-03T12:18:42.157Z,15.03
2022-10-03T12:19:42.137Z,15.03
2022-10-03T12:20:42.138Z,14.96
2022-10-03T12:21:42.348Z,15.02
2022-10-03T12:22:42.147Z,14.96
2022-10-03T12:23:42.123Z,14.99
2022-10-03T12:24:42.141Z,15.03
2022-10-03T12:25:42.166Z,15.04
2022-10-03T12:26:42.129Z,14.99
2022-10-03T12:27:42.115Z,15.04
2022-10-03T12:28:42.129Z,15.03
2022-10-03T12:29:42.128Z,15.04
2022-10-03T12:30:44.059Z,15.11
2022-10-03T12:31:42.552Z,15.10
2022-10-03T12:32:42.109Z,15.11
2022-10-03T12:33:42.156Z,15.14
2022-10-03T12:34:43.570Z,15.24
2022-10-03T12:35:42.107Z,15.29
2022-10-03T12:36:43.053Z,15.25
2022-10-03T12:37:42.122Z,15.29
2022-10-03T12:38:42.104Z,15.24
2022-10-03T12:39:42.091Z,15.24
2022-10-03T12:40:42.094Z,15.27
2022-10-03T12:41:42.394Z,15.25
2022-10-03T12:42:42.095Z,15.27
2022-10-03T12:43:42.091Z,15.21
2022-10-03T12:44:44.060Z,15.27
2022-10-03T12:45:42.639Z,15.29
2022-10-03T12:46:43.554Z,15.31
2022-10-03T12:47:55.203Z,15.39
2022-10-03T12:48:43.078Z,15.37
2022-10-03T12:49:42.082Z,15.40
2022-10-03T12:50:42.083Z,15.37
2022-10-03T12:51:42.586Z,15.43
2022-10-03T12:52:42.079Z,15.51
2022-10-03T12:53:42.072Z,15.49
2022-10-03T12:54:42.074Z,15.52
2022-10-03T12:55:42.085Z,15.58
2022-10-03T12:56:42.557Z,15.55
2022-10-03T12:57:42.076Z,15.58
2022-10-03T12:58:42.077Z,15.54
2022-10-03T12:59:42.077Z,15.52
2022-10-03T13:00:45.841Z,15.57
2022-10-03T13:01:43.170Z,15.52
2022-10-03T13:02:42.118Z,15.52
2022-10-03T13:03:42.063Z,15.57
2022-10-03T13:04:42.062Z,15.58
2022-10-03T13:05:43.062Z,15.55
2022-10-03T13:07:02.969Z,15.58
2022-10-03T13:07:42.068Z,15.61
2022-10-03T13:08:42.059Z,15.58
2022-10-03T13:09:43.596Z,15.54
2022-10-03T13:10:42.071Z,15.62
2022-10-03T13:11:42.484Z,15.62
2022-10-03T13:12:42.066Z,15.59
2022-10-03T13:13:42.084Z,15.57
2022-10-03T13:14:42.043Z,15.59
2022-10-03T13:15:42.099Z,15.61
2022-10-03T13:16:42.049Z,15.68
2022-10-03T13:17:42.041Z,15.58
2022-10-03T13:18:42.061Z,15.75
2022-10-03T13:19:42.049Z,15.70
2022-10-03T13:20:42.036Z,15.72
2022-10-03T13:21:46.056Z,15.68
2022-10-03T13:22:42.043Z,15.80
2022-10-03T13:23:42.039Z,15.75
2022-10-03T13:24:42.046Z,15.79
2022-10-03T13:25:42.148Z,15.77
2022-10-03T13:26:42.065Z,15.88
2022-10-03T13:27:42.029Z,15.76
2022-10-03T13:28:42.077Z,15.79
2022-10-03T13:29:42.571Z,15.75
2022-10-03T13:30:44.626Z,15.76
2022-10-03T13:31:42.475Z,15.76
2022-10-03T13:32:42.022Z,15.80
2022-10-03T13:33:42.019Z,15.75
2022-10-03T13:34:42.023Z,15.77
2022-10-03T13:35:42.021Z,15.77
2022-10-03T13:36:42.029Z,15.75
2022-10-03T13:37:42.030Z,15.77
2022-10-03T13:38:42.022Z,15.80
2022-10-03T13:39:42.016Z,15.80
2022-10-03T13:40:42.010Z,15.84
2022-10-03T13:41:42.441Z,15.84
2022-10-03T13:42:42.004Z,15.84
2022-10-03T13:43:42.001Z,15.80
2022-10-03T13:44:42.013Z,15.82
2022-10-03T13:45:42.059Z,15.84
2022-10-03T13:46:41.999Z,15.76
2022-10-03T13:47:41.994Z,15.76
2022-10-03T13:48:42.005Z,15.90
2022-10-03T13:49:42.014Z,15.91
2022-10-03T13:50:41.987Z,15.90
2022-10-03T13:51:42.215Z,15.88
2022-10-03T13:52:41.989Z,15.88
2022-10-03T13:53:41.991Z,15.88
2022-10-03T13:54:41.982Z,15.77
2022-10-03T13:55:41.983Z,15.94
2022-10-03T13:56:42.035Z,15.77
2022-10-03T13:57:41.978Z,15.88
2022-10-03T13:58:41.976Z,15.84
2022-10-03T13:59:42.003Z,15.88